sensor_id;sensor_type;location;lat;lon;timestamp;pressure;altitude;pressure_sealevel;temperature;humidity
80759;BME280;70150;45.582;10.178;2023-08-24T00:01:32;99929.75;;;29.35;56.81
80759;BME280;70150;45.582;10.178;2023-08-24T00:03:57;99920.97;;;29.36;56.33
80759;BME280;70150;45.582;10.178;2023-08-24T00:06:23;99931.38;;;29.41;56.78
80759;BME280;70150;45.582;10.178;2023-08-24T00:08:49;99929.75;;;29.35;56.42
80759;BME280;70150;45.582;10.178;2023-08-24T00:11:14;99927.75;;;29.35;56.68
80759;BME280;70150;45.582;10.178;2023-08-24T00:13:42;99925.06;;;29.26;57.03
80759;BME280;70150;45.582;10.178;2023-08-24T00:16:14;99927.19;;;29.17;57.53
80759;BME280;70150;45.582;10.178;2023-08-24T00:18:40;99929.91;;;29.02;57.83
80759;BME280;70150;45.582;10.178;2023-08-24T00:21:06;99931.16;;;28.87;58.52
80759;BME280;70150;45.582;10.178;2023-08-24T00:23:33;99919.63;;;28.88;58.63
80759;BME280;70150;45.582;10.178;2023-08-24T00:25:58;99919.53;;;28.83;58.77
80759;BME280;70150;45.582;10.178;2023-08-24T00:28:25;99931.72;;;28.76;58.71
80759;BME280;70150;45.582;10.178;2023-08-24T00:30:51;99931.81;;;28.67;59.02
80759;BME280;70150;45.582;10.178;2023-08-24T00:33:16;99930.56;;;28.68;59.01
80759;BME280;70150;45.582;10.178;2023-08-24T00:35:42;99932.84;;;28.70;59.12
80759;BME280;70150;45.582;10.178;2023-08-24T00:38:08;99939.25;;;28.76;59.16
80759;BME280;70150;45.582;10.178;2023-08-24T00:40:36;99938.47;;;28.75;58.92
80759;BME280;70150;45.582;10.178;2023-08-24T00:43:01;99932.59;;;28.82;58.67
80759;BME280;70150;45.582;10.178;2023-08-24T00:45:27;99930.78;;;28.79;59.00
80759;BME280;70150;45.582;10.178;2023-08-24T00:47:53;99934.09;;;28.83;58.50
80759;BME280;70150;45.582;10.178;2023-08-24T00:50:19;99931.81;;;28.82;58.61
80759;BME280;70150;45.582;10.178;2023-08-24T00:52:46;99931.13;;;28.72;58.82
80759;BME280;70150;45.582;10.178;2023-08-24T00:55:12;99928.97;;;28.76;58.92
80759;BME280;70150;45.582;10.178;2023-08-24T00:57:40;99926.69;;;28.75;58.79
80759;BME280;70150;45.582;10.178;2023-08-24T01:00:07;99927.50;;;28.66;58.66
80759;BME280;70150;45.582;10.178;2023-08-24T01:02:36;99929.69;;;28.62;59.11
80759;BME280;70150;45.582;10.178;2023-08-24T01:05:02;99931.84;;;28.58;59.41
80759;BME280;70150;45.582;10.178;2023-08-24T01:07:30;99925.13;;;28.59;58.82
80759;BME280;70150;45.582;10.178;2023-08-24T01:09:56;99930.34;;;28.57;58.97
80759;BME280;70150;45.582;10.178;2023-08-24T01:12:28;99922.94;;;28.63;58.78
80759;BME280;70150;45.582;10.178;2023-08-24T01:15:07;99926.06;;;28.56;58.77
80759;BME280;70150;45.582;10.178;2023-08-24T01:17:38;99920.53;;;28.56;59.04
80759;BME280;70150;45.582;10.178;2023-08-24T01:20:05;99927.06;;;28.44;59.30
80759;BME280;70150;45.582;10.178;2023-08-24T01:25:11;99912.53;;;28.20;60.46
80759;BME280;70150;45.582;10.178;2023-08-24T01:27:37;99919.72;;;28.17;60.14
80759;BME280;70150;45.582;10.178;2023-08-24T01:30:05;99924.06;;;28.33;60.06
80759;BME280;70150;45.582;10.178;2023-08-24T01:32:32;99919.91;;;28.38;59.42
80759;BME280;70150;45.582;10.178;2023-08-24T01:34:59;99921.84;;;28.46;59.06
80759;BME280;70150;45.582;10.178;2023-08-24T01:37:25;99924.00;;;28.42;59.38
80759;BME280;70150;45.582;10.178;2023-08-24T01:42:26;99918.31;;;28.46;58.92
80759;BME280;70150;45.582;10.178;2023-08-24T01:44:56;99920.47;;;28.42;59.33
80759;BME280;70150;45.582;10.178;2023-08-24T01:47:25;99915.72;;;28.42;58.98
80759;BME280;70150;45.582;10.178;2023-08-24T01:49:52;99921.94;;;28.28;59.48
80759;BME280;70150;45.582;10.178;2023-08-24T01:52:18;99917.16;;;28.14;60.24
80759;BME280;70150;45.582;10.178;2023-08-24T01:54:44;99914.09;;;28.12;60.34
80759;BME280;70150;45.582;10.178;2023-08-24T01:57:10;99913.16;;;28.15;60.30
80759;BME280;70150;45.582;10.178;2023-08-24T01:59:36;99911.41;;;28.03;60.89
80759;BME280;70150;45.582;10.178;2023-08-24T02:02:01;99913.16;;;28.15;60.24
80759;BME280;70150;45.582;10.178;2023-08-24T02:04:28;99912.19;;;28.03;60.20
80759;BME280;70150;45.582;10.178;2023-08-24T02:06:53;99913.16;;;28.15;60.13
80759;BME280;70150;45.582;10.178;2023-08-24T02:09:19;99907.06;;;28.11;60.16
80759;BME280;70150;45.582;10.178;2023-08-24T02:11:44;99905.72;;;28.06;60.72
80759;BME280;70150;45.582;10.178;2023-08-24T02:14:10;99901.97;;;27.86;60.99
80759;BME280;70150;45.582;10.178;2023-08-24T02:16:36;99901.06;;;27.89;61.04
80759;BME280;70150;45.582;10.178;2023-08-24T02:19:01;99904.38;;;27.69;61.51
80759;BME280;70150;45.582;10.178;2023-08-24T02:21:27;99903.53;;;27.78;61.71
80759;BME280;70150;45.582;10.178;2023-08-24T02:23:52;99903.09;;;27.79;61.29
80759;BME280;70150;45.582;10.178;2023-08-24T02:26:18;99904.44;;;27.93;60.89
80759;BME280;70150;45.582;10.178;2023-08-24T02:28:44;99903.31;;;27.99;60.54
80759;BME280;70150;45.582;10.178;2023-08-24T02:31:09;99904.38;;;28.02;60.93
80759;BME280;70150;45.582;10.178;2023-08-24T02:33:35;99898.66;;;28.05;60.45
80759;BME280;70150;45.582;10.178;2023-08-24T02:36:01;99905.91;;;28.03;60.74
80759;BME280;70150;45.582;10.178;2023-08-24T02:38:27;99905.31;;;27.99;60.73
80759;BME280;70150;45.582;10.178;2023-08-24T02:43:24;99904.72;;;27.95;60.74
80759;BME280;70150;45.582;10.178;2023-08-24T02:45:49;99904.91;;;27.91;61.17
80759;BME280;70150;45.582;10.178;2023-08-24T02:48:15;99894.94;;;27.85;60.96
80759;BME280;70150;45.582;10.178;2023-08-24T02:50:45;99897.72;;;27.85;61.33
80759;BME280;70150;45.582;10.178;2023-08-24T02:53:11;99900.94;;;27.83;61.20
80759;BME280;70150;45.582;10.178;2023-08-24T02:55:36;99902.63;;;27.81;61.18
80759;BME280;70150;45.582;10.178;2023-08-24T02:58:02;99896.22;;;27.75;61.20
80759;BME280;70150;45.582;10.178;2023-08-24T03:00:30;99902.91;;;27.83;60.87
80759;BME280;70150;45.582;10.178;2023-08-24T03:02:56;99906.44;;;27.83;61.31
80759;BME280;70150;45.582;10.178;2023-08-24T03:05:22;99903.22;;;27.85;61.45
80759;BME280;70150;45.582;10.178;2023-08-24T03:07:50;99897.56;;;27.88;60.93
80759;BME280;70150;45.582;10.178;2023-08-24T03:10:15;99896.47;;;27.86;61.02
80759;BME280;70150;45.582;10.178;2023-08-24T03:12:41;99890.38;;;27.82;61.16
80759;BME280;70150;45.582;10.178;2023-08-24T03:15:07;99886.72;;;27.76;60.99
80759;BME280;70150;45.582;10.178;2023-08-24T03:17:32;99890.59;;;27.69;61.32
80759;BME280;70150;45.582;10.178;2023-08-24T03:19:58;99891.63;;;27.72;60.93
80759;BME280;70150;45.582;10.178;2023-08-24T03:22:24;99895.06;;;27.67;61.51
80759;BME280;70150;45.582;10.178;2023-08-24T03:24:49;99902.59;;;27.57;61.69
80759;BME280;70150;45.582;10.178;2023-08-24T03:27:15;99909.47;;;27.62;61.82
80759;BME280;70150;45.582;10.178;2023-08-24T03:29:40;99911.81;;;27.54;61.77
80759;BME280;70150;45.582;10.178;2023-08-24T03:32:08;99909.81;;;27.55;61.70
80759;BME280;70150;45.582;10.178;2023-08-24T03:34:34;99908.88;;;27.58;61.77
80759;BME280;70150;45.582;10.178;2023-08-24T03:36:59;99904.59;;;27.57;61.72
80759;BME280;70150;45.582;10.178;2023-08-24T03:39:25;99908.56;;;27.56;61.83
80759;BME280;70150;45.582;10.178;2023-08-24T03:41:55;99906.59;;;27.56;61.53
80759;BME280;70150;45.582;10.178;2023-08-24T03:44:20;99907.00;;;27.64;61.27
80759;BME280;70150;45.582;10.178;2023-08-24T03:46:46;99909.13;;;27.69;61.01
80759;BME280;70150;45.582;10.178;2023-08-24T03:49:14;99910.94;;;27.72;60.65
80759;BME280;70150;45.582;10.178;2023-08-24T03:51:40;99915.25;;;27.73;60.61
80759;BME280;70150;45.582;10.178;2023-08-24T03:54:05;99912.59;;;27.78;60.93
80759;BME280;70150;45.582;10.178;2023-08-24T03:56:31;99910.59;;;27.88;60.28
80759;BME280;70150;45.582;10.178;2023-08-24T03:58:57;99909.94;;;27.84;60.30
80759;BME280;70150;45.582;10.178;2023-08-24T04:01:23;99912.25;;;27.85;60.13
80759;BME280;70150;45.582;10.178;2023-08-24T04:03:48;99912.91;;;27.80;60.27
80759;BME280;70150;45.582;10.178;2023-08-24T04:06:14;99918.69;;;27.82;60.17
80759;BME280;70150;45.582;10.178;2023-08-24T04:08:39;99917.47;;;27.83;60.54
80759;BME280;70150;45.582;10.178;2023-08-24T04:11:05;99923.47;;;27.82;60.28
80759;BME280;70150;45.582;10.178;2023-08-24T04:13:30;99924.22;;;27.82;60.40
80759;BME280;70150;45.582;10.178;2023-08-24T04:15:56;99922.44;;;27.70;60.48
80759;BME280;70150;45.582;10.178;2023-08-24T04:18:22;99922.31;;;27.65;60.70
80759;BME280;70150;45.582;10.178;2023-08-24T04:20:47;99918.31;;;27.66;61.02
80759;BME280;70150;45.582;10.178;2023-08-24T04:23:13;99925.66;;;27.69;60.92
80759;BME280;70150;45.582;10.178;2023-08-24T04:25:40;99925.06;;;27.65;61.20
80759;BME280;70150;45.582;10.178;2023-08-24T04:28:05;99927.53;;;27.63;60.83
80759;BME280;70150;45.582;10.178;2023-08-24T04:30:31;99930.91;;;27.67;60.88
80759;BME280;70150;45.582;10.178;2023-08-24T04:32:56;99922.44;;;27.70;60.92
80759;BME280;70150;45.582;10.178;2023-08-24T04:35:25;99925.50;;;27.72;60.78
80759;BME280;70150;45.582;10.178;2023-08-24T04:37:54;99924.09;;;27.77;60.73
80759;BME280;70150;45.582;10.178;2023-08-24T04:40:20;99923.22;;;27.71;60.36
80759;BME280;70150;45.582;10.178;2023-08-24T04:42:46;99925.97;;;27.71;60.61
80759;BME280;70150;45.582;10.178;2023-08-24T04:45:11;99925.97;;;27.71;60.26
80759;BME280;70150;45.582;10.178;2023-08-24T04:47:37;99927.63;;;27.77;60.14
80759;BME280;70150;45.582;10.178;2023-08-24T04:50:02;99927.31;;;27.75;59.96
80759;BME280;70150;45.582;10.178;2023-08-24T04:52:28;99931.47;;;27.71;60.04
80759;BME280;70150;45.582;10.178;2023-08-24T04:54:56;99936.06;;;27.74;60.40
80759;BME280;70150;45.582;10.178;2023-08-24T04:57:21;99930.19;;;27.90;59.88
80759;BME280;70150;45.582;10.178;2023-08-24T04:59:49;99940.59;;;27.86;59.59
80759;BME280;70150;45.582;10.178;2023-08-24T05:02:15;99939.69;;;27.89;59.58
80759;BME280;70150;45.582;10.178;2023-08-24T05:04:40;99943.06;;;27.93;59.32
80759;BME280;70150;45.582;10.178;2023-08-24T05:07:06;99947.56;;;28.05;59.13
80759;BME280;70150;45.582;10.178;2023-08-24T05:09:31;99952.31;;;28.04;59.49
80759;BME280;70150;45.582;10.178;2023-08-24T05:11:57;99952.31;;;28.04;59.27
80759;BME280;70150;45.582;10.178;2023-08-24T05:14:23;99953.09;;;28.05;59.36
80759;BME280;70150;45.582;10.178;2023-08-24T05:16:48;99954.84;;;28.17;58.87
80759;BME280;70150;45.582;10.178;2023-08-24T05:19:14;99958.84;;;28.16;58.84
80759;BME280;70150;45.582;10.178;2023-08-24T05:21:39;99956.00;;;28.25;58.73
80759;BME280;70150;45.582;10.178;2023-08-24T05:24:05;99959.38;;;28.53;58.10
80759;BME280;70150;45.582;10.178;2023-08-24T05:26:31;99957.72;;;28.84;57.33
80759;BME280;70150;45.582;10.178;2023-08-24T05:28:56;99969.22;;;29.06;56.13
80759;BME280;70150;45.582;10.178;2023-08-24T05:31:22;99970.44;;;29.34;55.72
80759;BME280;70150;45.582;10.178;2023-08-24T05:33:47;99971.88;;;29.44;55.37
80759;BME280;70150;45.582;10.178;2023-08-24T05:36:13;99960.22;;;29.69;54.47
80759;BME280;70150;45.582;10.178;2023-08-24T05:38:39;99968.56;;;29.90;53.93
80759;BME280;70150;45.582;10.178;2023-08-24T05:41:12;99973.94;;;30.13;53.24
80759;BME280;70150;45.582;10.178;2023-08-24T05:43:38;99961.16;;;30.36;52.58
80759;BME280;70150;45.582;10.178;2023-08-24T05:46:05;99962.56;;;30.46;52.50
80759;BME280;70150;45.582;10.178;2023-08-24T05:48:31;99966.25;;;30.63;52.12
80759;BME280;70150;45.582;10.178;2023-08-24T05:51:04;99972.91;;;30.71;51.90
80759;BME280;70150;45.582;10.178;2023-08-24T05:53:31;99974.38;;;30.86;51.22
80759;BME280;70150;45.582;10.178;2023-08-24T05:55:58;99983.31;;;31.27;50.23
80759;BME280;70150;45.582;10.178;2023-08-24T05:58:26;99981.16;;;31.68;49.01
80759;BME280;70150;45.582;10.178;2023-08-24T06:00:55;99989.44;;;31.93;48.12
80759;BME280;70150;45.582;10.178;2023-08-24T06:03:24;99998.63;;;32.58;47.14
80759;BME280;70150;45.582;10.178;2023-08-24T06:05:49;100004.88;;;33.06;46.02
80759;BME280;70150;45.582;10.178;2023-08-24T06:08:15;99996.31;;;33.65;44.62
80759;BME280;70150;45.582;10.178;2023-08-24T06:10:41;99998.84;;;33.90;44.06
80759;BME280;70150;45.582;10.178;2023-08-24T06:13:06;99989.94;;;34.14;43.63
80759;BME280;70150;45.582;10.178;2023-08-24T06:15:32;99987.34;;;34.27;43.21
80759;BME280;70150;45.582;10.178;2023-08-24T06:17:57;99982.16;;;34.64;42.29
80759;BME280;70150;45.582;10.178;2023-08-24T06:20:24;99969.81;;;35.00;41.30
80759;BME280;70150;45.582;10.178;2023-08-24T06:22:52;99973.25;;;35.12;41.11
80759;BME280;70150;45.582;10.178;2023-08-24T06:25:21;99968.47;;;35.07;41.29
80759;BME280;70150;45.582;10.178;2023-08-24T06:27:48;99969.50;;;35.44;40.91
80759;BME280;70150;45.582;10.178;2023-08-24T06:30:14;99969.34;;;35.61;40.23
80759;BME280;70150;45.582;10.178;2023-08-24T06:32:39;99978.19;;;35.94;39.42
80759;BME280;70150;45.582;10.178;2023-08-24T06:35:07;99981.75;;;36.38;38.63
80759;BME280;70150;45.582;10.178;2023-08-24T06:37:33;99984.09;;;36.71;38.07
80759;BME280;70150;45.582;10.178;2023-08-24T06:39:58;99988.00;;;37.36;36.94
80759;BME280;70150;45.582;10.178;2023-08-24T06:42:24;99975.28;;;37.67;36.48
80759;BME280;70150;45.582;10.178;2023-08-24T06:44:52;99983.28;;;37.89;35.89
80759;BME280;70150;45.582;10.178;2023-08-24T06:47:17;99975.53;;;38.34;35.09
80759;BME280;70150;45.582;10.178;2023-08-24T06:49:45;99975.63;;;39.01;33.72
80759;BME280;70150;45.582;10.178;2023-08-24T06:52:11;99971.09;;;38.98;34.28
80759;BME280;70150;45.582;10.178;2023-08-24T06:54:37;99966.16;;;38.91;33.79
80759;BME280;70150;45.582;10.178;2023-08-24T06:57:02;99967.84;;;39.48;33.07
80759;BME280;70150;45.582;10.178;2023-08-24T06:59:29;99966.84;;;39.67;32.55
80759;BME280;70150;45.582;10.178;2023-08-24T07:01:54;99962.03;;;39.46;32.97
80759;BME280;70150;45.582;10.178;2023-08-24T07:04:20;99966.25;;;40.17;31.93
80759;BME280;70150;45.582;10.178;2023-08-24T07:06:45;99963.75;;;40.92;30.86
80759;BME280;70150;45.582;10.178;2023-08-24T07:09:11;99963.25;;;41.16;30.37
80759;BME280;70150;45.582;10.178;2023-08-24T07:11:37;99968.72;;;41.44;29.85
80759;BME280;70150;45.582;10.178;2023-08-24T07:14:02;99963.81;;;41.15;30.22
80759;BME280;70150;45.582;10.178;2023-08-24T07:16:28;99965.91;;;41.44;29.78
80759;BME280;70150;45.582;10.178;2023-08-24T07:18:53;99960.41;;;42.06;29.19
80759;BME280;70150;45.582;10.178;2023-08-24T07:21:19;99958.59;;;41.56;29.35
80759;BME280;70150;45.582;10.178;2023-08-24T07:23:44;99958.53;;;40.45;31.09
80759;BME280;70150;45.582;10.178;2023-08-24T07:26:12;99958.22;;;39.65;32.75
80759;BME280;70150;45.582;10.178;2023-08-24T07:28:38;99962.59;;;38.44;34.37
80759;BME280;70150;45.582;10.178;2023-08-24T07:31:08;99965.72;;;37.75;35.87
80759;BME280;70150;45.582;10.178;2023-08-24T07:33:33;99960.84;;;37.31;37.20
80759;BME280;70150;45.582;10.178;2023-08-24T07:36:01;99955.16;;;37.37;38.17
80759;BME280;70150;45.582;10.178;2023-08-24T07:38:29;99956.19;;;37.02;38.42
80759;BME280;70150;45.582;10.178;2023-08-24T07:40:55;99951.50;;;36.79;37.97
80759;BME280;70150;45.582;10.178;2023-08-24T07:43:23;99956.16;;;36.71;38.41
80759;BME280;70150;45.582;10.178;2023-08-24T07:45:48;99960.00;;;36.68;38.38
80759;BME280;70150;45.582;10.178;2023-08-24T07:48:14;99955.63;;;36.54;38.22
80759;BME280;70150;45.582;10.178;2023-08-24T07:50:40;99958.34;;;36.41;37.62
80759;BME280;70150;45.582;10.178;2023-08-24T07:53:05;99952.75;;;36.41;36.91
80759;BME280;70150;45.582;10.178;2023-08-24T07:55:31;99958.56;;;36.43;36.73
80759;BME280;70150;45.582;10.178;2023-08-24T07:57:57;99959.78;;;36.47;36.66
80759;BME280;70150;45.582;10.178;2023-08-24T08:00:22;99962.78;;;36.68;36.21
80759;BME280;70150;45.582;10.178;2023-08-24T08:02:51;99960.75;;;36.68;36.05
80759;BME280;70150;45.582;10.178;2023-08-24T08:05:17;99959.69;;;36.71;36.46
80759;BME280;70150;45.582;10.178;2023-08-24T08:07:43;99961.34;;;36.61;36.91
80759;BME280;70150;45.582;10.178;2023-08-24T08:10:09;99962.94;;;36.57;36.92
80759;BME280;70150;45.582;10.178;2023-08-24T08:12:34;99957.53;;;36.46;36.89
80759;BME280;70150;45.582;10.178;2023-08-24T08:15:00;99957.19;;;36.31;37.45
80759;BME280;70150;45.582;10.178;2023-08-24T08:17:27;99959.56;;;36.21;37.13
80759;BME280;70150;45.582;10.178;2023-08-24T08:19:55;99956.09;;;36.15;38.55
80759;BME280;70150;45.582;10.178;2023-08-24T08:22:21;99953.47;;;35.74;38.58
80759;BME280;70150;45.582;10.178;2023-08-24T08:24:46;99945.63;;;35.73;38.81
80759;BME280;70150;45.582;10.178;2023-08-24T08:27:12;99949.31;;;35.86;38.86
80759;BME280;70150;45.582;10.178;2023-08-24T08:29:38;99950.06;;;36.11;38.34
80759;BME280;70150;45.582;10.178;2023-08-24T08:32:03;99942.56;;;36.19;37.43
80759;BME280;70150;45.582;10.178;2023-08-24T08:34:31;99948.66;;;36.42;38.23
80759;BME280;70150;45.582;10.178;2023-08-24T08:36:59;99949.34;;;36.48;37.25
80759;BME280;70150;45.582;10.178;2023-08-24T08:39:27;99952.38;;;36.50;37.48
80759;BME280;70150;45.582;10.178;2023-08-24T08:41:52;99961.44;;;36.56;37.09
80759;BME280;70150;45.582;10.178;2023-08-24T08:44:18;99958.88;;;36.58;37.01
80759;BME280;70150;45.582;10.178;2023-08-24T08:46:44;99962.94;;;36.57;36.97
80759;BME280;70150;45.582;10.178;2023-08-24T08:49:12;99964.00;;;36.54;36.33
80759;BME280;70150;45.582;10.178;2023-08-24T08:51:41;99958.50;;;36.67;36.43
80759;BME280;70150;45.582;10.178;2023-08-24T08:54:07;99956.66;;;36.75;37.78
80759;BME280;70150;45.582;10.178;2023-08-24T08:56:33;99954.13;;;36.71;36.79
80759;BME280;70150;45.582;10.178;2023-08-24T08:59:03;99952.28;;;36.74;36.18
80759;BME280;70150;45.582;10.178;2023-08-24T09:01:33;99946.91;;;36.39;37.04
80759;BME280;70150;45.582;10.178;2023-08-24T09:04:00;99954.03;;;36.40;37.40
80759;BME280;70150;45.582;10.178;2023-08-24T09:06:26;99946.22;;;36.33;36.70
80759;BME280;70150;45.582;10.178;2023-08-24T09:08:52;99942.47;;;36.49;36.99
80759;BME280;70150;45.582;10.178;2023-08-24T09:11:17;99943.47;;;36.70;36.86
80759;BME280;70150;45.582;10.178;2023-08-24T09:13:44;99948.66;;;36.60;36.20
80759;BME280;70150;45.582;10.178;2023-08-24T09:16:10;99939.22;;;36.45;37.59
80759;BME280;70150;45.582;10.178;2023-08-24T09:18:43;99937.28;;;36.40;37.17
80759;BME280;70150;45.582;10.178;2023-08-24T09:21:12;99936.13;;;36.48;37.00
80759;BME280;70150;45.582;10.178;2023-08-24T09:23:43;99943.00;;;36.04;37.17
80759;BME280;70150;45.582;10.178;2023-08-24T09:26:10;99934.22;;;35.95;37.61
80759;BME280;70150;45.582;10.178;2023-08-24T09:28:36;99924.56;;;35.96;36.89
80759;BME280;70150;45.582;10.178;2023-08-24T09:31:06;99927.06;;;35.99;36.96
80759;BME280;70150;45.582;10.178;2023-08-24T09:33:32;99937.56;;;36.36;37.81
80759;BME280;70150;45.582;10.178;2023-08-24T09:36:00;99938.16;;;36.48;37.84
80759;BME280;70150;45.582;10.178;2023-08-24T09:38:27;99941.25;;;36.63;36.61
80759;BME280;70150;45.582;10.178;2023-08-24T09:40:56;99929.03;;;36.28;36.69
80759;BME280;70150;45.582;10.178;2023-08-24T09:43:22;99925.03;;;36.43;36.86
80759;BME280;70150;45.582;10.178;2023-08-24T09:45:49;99920.13;;;36.49;37.06
80759;BME280;70150;45.582;10.178;2023-08-24T09:48:15;99921.63;;;36.50;35.73
80759;BME280;70150;45.582;10.178;2023-08-24T09:50:44;99914.28;;;36.65;35.07
80759;BME280;70150;45.582;10.178;2023-08-24T09:53:16;99915.88;;;36.61;35.56
80759;BME280;70150;45.582;10.178;2023-08-24T09:58:15;99905.31;;;36.35;36.03
80759;BME280;70150;45.582;10.178;2023-08-24T10:00:45;99904.53;;;36.35;36.01
80759;BME280;70150;45.582;10.178;2023-08-24T10:03:16;99907.88;;;36.52;35.99
80759;BME280;70150;45.582;10.178;2023-08-24T10:05:47;99908.41;;;36.69;36.26
80759;BME280;70150;45.582;10.178;2023-08-24T10:08:17;99909.22;;;36.64;36.19
80759;BME280;70150;45.582;10.178;2023-08-24T10:10:46;99908.44;;;36.26;35.70
80759;BME280;70150;45.582;10.178;2023-08-24T10:13:18;99899.41;;;36.39;36.15
80759;BME280;70150;45.582;10.178;2023-08-24T10:15:45;99895.72;;;36.31;35.52
80759;BME280;70150;45.582;10.178;2023-08-24T10:18:15;99906.28;;;36.56;36.74
80759;BME280;70150;45.582;10.178;2023-08-24T10:20:42;99895.72;;;36.31;36.14
80759;BME280;70150;45.582;10.178;2023-08-24T10:23:11;99888.22;;;36.20;36.11
80759;BME280;70150;45.582;10.178;2023-08-24T10:25:38;99888.06;;;36.12;37.35
80759;BME280;70150;45.582;10.178;2023-08-24T10:28:05;99889.84;;;36.10;36.74
80759;BME280;70150;45.582;10.178;2023-08-24T10:30:33;99887.94;;;35.99;36.83
80759;BME280;70150;45.582;10.178;2023-08-24T10:33:00;99890.81;;;36.37;36.75
80759;BME280;70150;45.582;10.178;2023-08-24T10:35:26;99889.25;;;36.17;35.89
80759;BME280;70150;45.582;10.178;2023-08-24T10:37:53;99883.38;;;36.02;36.49
80759;BME280;70150;45.582;10.178;2023-08-24T10:40:30;99888.31;;;36.33;37.58
80759;BME280;70150;45.582;10.178;2023-08-24T10:42:56;99879.97;;;36.27;36.31
80759;BME280;70150;45.582;10.178;2023-08-24T10:45:23;99879.91;;;36.52;35.94
80759;BME280;70150;45.582;10.178;2023-08-24T10:47:52;99879.00;;;36.06;35.54
80759;BME280;70150;45.582;10.178;2023-08-24T10:50:19;99869.91;;;36.00;36.37
80759;BME280;70150;45.582;10.178;2023-08-24T10:52:45;99873.16;;;36.04;35.33
80759;BME280;70150;45.582;10.178;2023-08-24T10:57:42;99869.38;;;36.20;37.74
80759;BME280;70150;45.582;10.178;2023-08-24T11:00:10;99868.72;;;36.52;35.95
80759;BME280;70150;45.582;10.178;2023-08-24T11:07:49;99862.34;;;36.70;35.48
80759;BME280;70150;45.582;10.178;2023-08-24T11:10:16;99858.25;;;36.71;35.56
80759;BME280;70150;45.582;10.178;2023-08-24T11:20:30;99843.22;;;37.05;33.72
80759;BME280;70150;45.582;10.178;2023-08-24T11:22:56;99850.50;;;36.95;34.35
80759;BME280;70150;45.582;10.178;2023-08-24T11:25:22;99844.50;;;37.04;33.76
80759;BME280;70150;45.582;10.178;2023-08-24T11:27:48;99845.19;;;36.79;34.25
80759;BME280;70150;45.582;10.178;2023-08-24T11:30:16;99843.00;;;36.72;35.04
80759;BME280;70150;45.582;10.178;2023-08-24T11:32:44;99843.91;;;36.80;33.93
80759;BME280;70150;45.582;10.178;2023-08-24T11:35:11;99829.09;;;36.85;35.04
80759;BME280;70150;45.582;10.178;2023-08-24T11:37:37;99832.22;;;36.94;35.06
80759;BME280;70150;45.582;10.178;2023-08-24T11:40:03;99836.63;;;36.90;35.63
80759;BME280;70150;45.582;10.178;2023-08-24T11:42:35;99834.66;;;36.85;35.16
80759;BME280;70150;45.582;10.178;2023-08-24T11:45:00;99838.38;;;36.93;34.47
80759;BME280;70150;45.582;10.178;2023-08-24T11:47:26;99828.78;;;36.88;33.76
80759;BME280;70150;45.582;10.178;2023-08-24T11:49:51;99823.09;;;37.07;34.33
80759;BME280;70150;45.582;10.178;2023-08-24T11:52:17;99829.88;;;37.11;33.52
80759;BME280;70150;45.582;10.178;2023-08-24T11:54:43;99830.56;;;36.86;34.42
80759;BME280;70150;45.582;10.178;2023-08-24T11:57:10;99822.13;;;37.04;34.57
80759;BME280;70150;45.582;10.178;2023-08-24T11:59:37;99816.53;;;37.17;33.97
80759;BME280;70150;45.582;10.178;2023-08-24T12:02:04;99817.75;;;37.22;34.11
80759;BME280;70150;45.582;10.178;2023-08-24T12:04:39;99809.72;;;36.87;33.65
80759;BME280;70150;45.582;10.178;2023-08-24T12:07:09;99811.13;;;36.93;34.31
80759;BME280;70150;45.582;10.178;2023-08-24T12:09:35;99810.34;;;36.80;34.44
80759;BME280;70150;45.582;10.178;2023-08-24T12:12:00;99809.41;;;36.90;34.70
80759;BME280;70150;45.582;10.178;2023-08-24T12:14:26;99810.72;;;37.02;34.17
80759;BME280;70150;45.582;10.178;2023-08-24T12:16:51;99814.81;;;37.01;34.45
80759;BME280;70150;45.582;10.178;2023-08-24T12:19:21;99801.69;;;37.09;34.10
80759;BME280;70150;45.582;10.178;2023-08-24T12:21:49;99802.00;;;37.19;34.36
80759;BME280;70150;45.582;10.178;2023-08-24T12:24:15;99796.53;;;37.26;34.60
80759;BME280;70150;45.582;10.178;2023-08-24T12:26:41;99797.72;;;37.18;34.77
80759;BME280;70150;45.582;10.178;2023-08-24T12:29:08;99795.63;;;36.92;34.74
80759;BME280;70150;45.582;10.178;2023-08-24T12:31:35;99790.75;;;36.48;35.35
80759;BME280;70150;45.582;10.178;2023-08-24T12:34:04;99792.66;;;36.72;34.63
80759;BME280;70150;45.582;10.178;2023-08-24T12:36:32;99782.59;;;36.95;35.75
80759;BME280;70150;45.582;10.178;2023-08-24T12:38:58;99786.94;;;37.09;34.88
80759;BME280;70150;45.582;10.178;2023-08-24T12:41:23;99779.63;;;37.19;35.27
80759;BME280;70150;45.582;10.178;2023-08-24T12:43:51;99783.06;;;37.12;33.94
80759;BME280;70150;45.582;10.178;2023-08-24T12:46:17;99789.31;;;37.18;34.18
80759;BME280;70150;45.582;10.178;2023-08-24T12:48:43;99784.69;;;37.07;34.26
80759;BME280;70150;45.582;10.178;2023-08-24T12:51:08;99781.34;;;37.09;33.50
80759;BME280;70150;45.582;10.178;2023-08-24T12:53:34;99778.16;;;36.73;33.85
80759;BME280;70150;45.582;10.178;2023-08-24T12:56:00;99771.25;;;36.74;34.53
80759;BME280;70150;45.582;10.178;2023-08-24T12:58:28;99777.97;;;36.84;33.55
80759;BME280;70150;45.582;10.178;2023-08-24T13:00:53;99769.84;;;36.68;33.87
80759;BME280;70150;45.582;10.178;2023-08-24T13:03:19;99773.94;;;36.67;34.23
80759;BME280;70150;45.582;10.178;2023-08-24T13:05:44;99759.06;;;36.59;33.72
80759;BME280;70150;45.582;10.178;2023-08-24T13:08:10;99757.50;;;36.45;34.38
80759;BME280;70150;45.582;10.178;2023-08-24T13:10:35;99759.28;;;36.61;34.06
80759;BME280;70150;45.582;10.178;2023-08-24T13:13:04;99756.47;;;36.79;34.43